sensor_id;sensor_type;location;lat;lon;timestamp;pressure;altitude;pressure_sealevel;temperature;humidity
32761;BME280;19126;47.472;7.850;2023-11-19T00:00:27;96837.19;;;5.75;23.13
32761;BME280;19126;47.472;7.850;2023-11-19T00:02:53;96825.94;;;5.74;22.97
32761;BME280;19126;47.472;7.850;2023-11-19T00:05:21;96822.53;;;5.74;23.07
32761;BME280;19126;47.472;7.850;2023-11-19T00:07:50;96830.88;;;5.77;22.93
32761;BME280;19126;47.472;7.850;2023-11-19T00:10:18;96838.69;;;5.77;22.89
32761;BME280;19126;47.472;7.850;2023-11-19T00:12:48;96826.50;;;5.78;22.95
32761;BME280;19126;47.472;7.850;2023-11-19T00:15:17;96827.47;;;5.77;22.76
32761;BME280;19126;47.472;7.850;2023-11-19T00:17:46;96824.84;;;5.77;22.35
32761;BME280;19126;47.472;7.850;2023-11-19T00:20:16;96822.94;;;5.79;22.48
32761;BME280;19126;47.472;7.850;2023-11-19T00:22:44;96826.22;;;5.81;22.40
32761;BME280;19126;47.472;7.850;2023-11-19T00:25:16;96815.78;;;5.81;22.63
32761;BME280;19126;47.472;7.850;2023-11-19T00:27:43;96806.31;;;5.80;22.13
32761;BME280;19126;47.472;7.850;2023-11-19T00:30:12;96800.00;;;5.92;22.47
32761;BME280;19126;47.472;7.850;2023-11-19T00:32:40;96784.63;;;5.89;22.34
32761;BME280;19126;47.472;7.850;2023-11-19T00:35:09;96774.47;;;5.86;21.93
32761;BME280;19126;47.472;7.850;2023-11-19T00:37:37;96776.13;;;5.87;22.43
32761;BME280;19126;47.472;7.850;2023-11-19T00:40:07;96764.06;;;5.86;22.45
32761;BME280;19126;47.472;7.850;2023-11-19T00:42:38;96766.66;;;5.86;22.00
32761;BME280;19126;47.472;7.850;2023-11-19T00:45:09;96764.75;;;5.88;22.22
32761;BME280;19126;47.472;7.850;2023-11-19T00:47:38;96765.69;;;5.87;22.43
32761;BME280;19126;47.472;7.850;2023-11-19T00:50:08;96776.25;;;5.85;22.27
32761;BME280;19126;47.472;7.850;2023-11-19T00:52:37;96785.72;;;5.86;22.30
32761;BME280;19126;47.472;7.850;2023-11-19T00:55:06;96778.19;;;5.83;22.61
32761;BME280;19126;47.472;7.850;2023-11-19T00:57:33;96764.75;;;5.88;22.14
32761;BME280;19126;47.472;7.850;2023-11-19T01:00:04;96771.16;;;5.94;21.81
32761;BME280;19126;47.472;7.850;2023-11-19T01:02:41;96773.75;;;5.94;22.07
32761;BME280;19126;47.472;7.850;2023-11-19T01:05:09;96779.81;;;5.94;22.32
32761;BME280;19126;47.472;7.850;2023-11-19T01:07:40;96779.66;;;5.96;21.44
32761;BME280;19126;47.472;7.850;2023-11-19T01:10:08;96774.75;;;6.03;21.48
32761;BME280;19126;47.472;7.850;2023-11-19T01:12:36;96785.19;;;6.03;21.88
32761;BME280;19126;47.472;7.850;2023-11-19T01:15:07;96774.06;;;6.00;21.96
32761;BME280;19126;47.472;7.850;2023-11-19T01:17:35;96765.28;;;6.01;21.85
32761;BME280;19126;47.472;7.850;2023-11-19T01:20:05;96768.84;;;6.00;21.20
32761;BME280;19126;47.472;7.850;2023-11-19T01:22:33;96745.75;;;5.96;21.64
32761;BME280;19126;47.472;7.850;2023-11-19T01:25:01;96743.56;;;6.01;21.57
32761;BME280;19126;47.472;7.850;2023-11-19T01:27:31;96738.38;;;6.01;21.77
32761;BME280;19126;47.472;7.850;2023-11-19T01:30:00;96729.31;;;5.95;21.56
32761;BME280;19126;47.472;7.850;2023-11-19T01:32:32;96726.69;;;6.05;21.74
32761;BME280;19126;47.472;7.850;2023-11-19T01:34:59;96720.50;;;6.06;21.46
32761;BME280;19126;47.472;7.850;2023-11-19T01:37:27;96710.34;;;6.03;21.78
32761;BME280;19126;47.472;7.850;2023-11-19T01:39:55;96714.19;;;6.09;21.19
32761;BME280;19126;47.472;7.850;2023-11-19T01:42:23;96716.81;;;6.09;21.30
32761;BME280;19126;47.472;7.850;2023-11-19T01:44:59;96714.03;;;6.10;20.97
32761;BME280;19126;47.472;7.850;2023-11-19T01:47:30;96703.75;;;6.09;21.16
32761;BME280;19126;47.472;7.850;2023-11-19T01:49:59;96701.97;;;6.09;21.84
32761;BME280;19126;47.472;7.850;2023-11-19T01:52:27;96688.50;;;6.14;21.55
32761;BME280;19126;47.472;7.850;2023-11-19T01:54:55;96702.06;;;6.18;21.52
32761;BME280;19126;47.472;7.850;2023-11-19T01:57:24;96699.72;;;6.24;21.34
32761;BME280;19126;47.472;7.850;2023-11-19T01:59:53;96704.78;;;6.26;21.24
32761;BME280;19126;47.472;7.850;2023-11-19T02:02:20;96709.19;;;6.25;20.95
32761;BME280;19126;47.472;7.850;2023-11-19T02:04:50;96708.88;;;6.28;21.48
32761;BME280;19126;47.472;7.850;2023-11-19T02:07:18;96705.31;;;6.29;21.46
32761;BME280;19126;47.472;7.850;2023-11-19T02:09:46;96698.28;;;6.30;21.12
32761;BME280;19126;47.472;7.850;2023-11-19T02:12:14;96698.97;;;6.32;21.52
32761;BME280;19126;47.472;7.850;2023-11-19T02:14:41;96690.03;;;6.35;21.07
32761;BME280;19126;47.472;7.850;2023-11-19T02:17:25;96694.00;;;6.39;21.52
32761;BME280;19126;47.472;7.850;2023-11-19T02:19:55;96699.91;;;6.41;21.61
32761;BME280;19126;47.472;7.850;2023-11-19T02:22:22;96720.56;;;6.52;21.35
32761;BME280;19126;47.472;7.850;2023-11-19T02:24:58;96721.69;;;6.50;21.03
32761;BME280;19126;47.472;7.850;2023-11-19T02:27:39;96705.06;;;6.51;21.50
32761;BME280;19126;47.472;7.850;2023-11-19T02:30:08;96705.88;;;6.51;21.41
32761;BME280;19126;47.472;7.850;2023-11-19T02:32:35;96699.81;;;6.51;21.41
32761;BME280;19126;47.472;7.850;2023-11-19T02:35:07;96702.09;;;6.64;21.62
32761;BME280;19126;47.472;7.850;2023-11-19T02:37:35;96696.06;;;6.63;21.88
32761;BME280;19126;47.472;7.850;2023-11-19T02:40:03;96701.28;;;6.63;21.83
32761;BME280;19126;47.472;7.850;2023-11-19T02:42:31;96714.34;;;6.63;21.44
32761;BME280;19126;47.472;7.850;2023-11-19T02:45:01;96713.75;;;6.69;21.46
32761;BME280;19126;47.472;7.850;2023-11-19T02:47:32;96719.06;;;6.96;21.40
32761;BME280;19126;47.472;7.850;2023-11-19T02:49:59;96715.56;;;7.05;21.24
32761;BME280;19126;47.472;7.850;2023-11-19T02:52:27;96708.78;;;6.94;21.75
32761;BME280;19126;47.472;7.850;2023-11-19T02:54:54;96714.28;;;6.91;21.65
32761;BME280;19126;47.472;7.850;2023-11-19T02:57:22;96714.88;;;6.85;21.63
32761;BME280;19126;47.472;7.850;2023-11-19T02:59:51;96714.72;;;6.86;21.02
32761;BME280;19126;47.472;7.850;2023-11-19T03:02:20;96713.91;;;6.86;21.64
32761;BME280;19126;47.472;7.850;2023-11-19T03:04:48;96715.56;;;6.87;22.09
32761;BME280;19126;47.472;7.850;2023-11-19T03:07:15;96719.94;;;6.86;21.41
32761;BME280;19126;47.472;7.850;2023-11-19T03:09:43;96717.88;;;6.90;22.01
32761;BME280;19126;47.472;7.850;2023-11-19T03:12:11;96710.72;;;6.92;21.49
32761;BME280;19126;47.472;7.850;2023-11-19T03:14:38;96703.69;;;6.93;21.65
32761;BME280;19126;47.472;7.850;2023-11-19T03:17:06;96701.75;;;6.95;21.38
32761;BME280;19126;47.472;7.850;2023-11-19T03:19:37;96697.50;;;6.94;22.25
32761;BME280;19126;47.472;7.850;2023-11-19T03:22:05;96704.91;;;6.98;21.97
32761;BME280;19126;47.472;7.850;2023-11-19T03:24:33;96696.91;;;7.00;22.30
32761;BME280;19126;47.472;7.850;2023-11-19T03:27:02;96693.31;;;7.01;21.53
32761;BME280;19126;47.472;7.850;2023-11-19T03:29:30;96696.97;;;7.08;21.83
32761;BME280;19126;47.472;7.850;2023-11-19T03:31:57;96700.91;;;7.12;21.86
32761;BME280;19126;47.472;7.850;2023-11-19T03:34:25;96707.78;;;7.13;21.69
32761;BME280;19126;47.472;7.850;2023-11-19T03:36:54;96717.63;;;7.19;22.01
32761;BME280;19126;47.472;7.850;2023-11-19T03:39:23;96709.13;;;7.17;21.85
32761;BME280;19126;47.472;7.850;2023-11-19T03:41:51;96705.53;;;7.18;22.53
32761;BME280;19126;47.472;7.850;2023-11-19T03:44:18;96709.97;;;7.18;22.31
32761;BME280;19126;47.472;7.850;2023-11-19T03:46:47;96714.34;;;7.17;22.61
32761;BME280;19126;47.472;7.850;2023-11-19T03:49:15;96703.91;;;7.17;23.15
32761;BME280;19126;47.472;7.850;2023-11-19T03:51:43;96712.41;;;7.19;22.35
32761;BME280;19126;47.472;7.850;2023-11-19T03:54:12;96720.78;;;7.23;22.79
32761;BME280;19126;47.472;7.850;2023-11-19T03:56:40;96714.06;;;7.21;22.39
32761;BME280;19126;47.472;7.850;2023-11-19T03:59:08;96712.03;;;7.32;22.90
32761;BME280;19126;47.472;7.850;2023-11-19T04:01:36;96728.44;;;7.43;22.55
32761;BME280;19126;47.472;7.850;2023-11-19T04:04:04;96727.63;;;7.42;22.48
32761;BME280;19126;47.472;7.850;2023-11-19T04:06:32;96728.56;;;7.59;22.69
32761;BME280;19126;47.472;7.850;2023-11-19T04:09:00;96728.50;;;7.51;23.54
32761;BME280;19126;47.472;7.850;2023-11-19T04:11:29;96742.84;;;7.47;23.00
32761;BME280;19126;47.472;7.850;2023-11-19T04:13:56;96731.56;;;7.46;22.26
32761;BME280;19126;47.472;7.850;2023-11-19T04:16:26;96732.84;;;7.42;22.68
32761;BME280;19126;47.472;7.850;2023-11-19T04:18:55;96742.94;;;7.37;22.51
32761;BME280;19126;47.472;7.850;2023-11-19T04:21:22;96735.16;;;7.45;22.33
32761;BME280;19126;47.472;7.850;2023-11-19T04:23:50;96736.59;;;7.40;22.60
32761;BME280;19126;47.472;7.850;2023-11-19T04:26:17;96736.66;;;7.48;23.00
32761;BME280;19126;47.472;7.850;2023-11-19T04:28:46;96748.38;;;7.44;22.84
32761;BME280;19126;47.472;7.850;2023-11-19T04:31:15;96746.06;;;7.41;23.07
32761;BME280;19126;47.472;7.850;2023-11-19T04:33:43;96746.88;;;7.41;22.47
32761;BME280;19126;47.472;7.850;2023-11-19T04:36:11;96746.81;;;7.51;22.62
32761;BME280;19126;47.472;7.850;2023-11-19T04:38:40;96740.91;;;7.49;23.01
32761;BME280;19126;47.472;7.850;2023-11-19T04:41:07;96754.13;;;7.47;22.87
32761;BME280;19126;47.472;7.850;2023-11-19T04:43:35;96750.41;;;7.50;22.96
32761;BME280;19126;47.472;7.850;2023-11-19T04:46:06;96749.13;;;7.54;23.20
32761;BME280;19126;47.472;7.850;2023-11-19T04:48:33;96743.28;;;7.60;22.83
32761;BME280;19126;47.472;7.850;2023-11-19T04:51:01;96743.72;;;7.56;22.53
32761;BME280;19126;47.472;7.850;2023-11-19T04:53:29;96744.03;;;7.53;23.51
32761;BME280;19126;47.472;7.850;2023-11-19T04:55:56;96737.84;;;7.54;23.45
32761;BME280;19126;47.472;7.850;2023-11-19T04:58:24;96739.94;;;7.50;23.77
32761;BME280;19126;47.472;7.850;2023-11-19T05:00:51;96735.53;;;7.51;23.58
32761;BME280;19126;47.472;7.850;2023-11-19T05:03:20;96748.59;;;7.51;24.02
32761;BME280;19126;47.472;7.850;2023-11-19T05:05:49;96741.59;;;7.51;23.77
32761;BME280;19126;47.472;7.850;2023-11-19T05:08:16;96745.84;;;7.52;23.86
32761;BME280;19126;47.472;7.850;2023-11-19T05:10:44;96747.63;;;7.52;23.66
32761;BME280;19126;47.472;7.850;2023-11-19T05:13:11;96751.88;;;7.53;23.19
32761;BME280;19126;47.472;7.850;2023-11-19T05:15:39;96745.22;;;7.58;22.80
32761;BME280;19126;47.472;7.850;2023-11-19T05:18:07;96729.25;;;7.61;24.22
32761;BME280;19126;47.472;7.850;2023-11-19T05:20:36;96740.06;;;7.67;23.13
32761;BME280;19126;47.472;7.850;2023-11-19T05:23:04;96730.03;;;7.62;24.00
32761;BME280;19126;47.472;7.850;2023-11-19T05:25:32;96745.59;;;7.63;22.93
32761;BME280;19126;47.472;7.850;2023-11-19T05:27:59;96758.13;;;7.78;24.16
32761;BME280;19126;47.472;7.850;2023-11-19T05:30:27;96753.56;;;7.80;23.88
32761;BME280;19126;47.472;7.850;2023-11-19T05:32:55;96746.00;;;7.77;24.24
32761;BME280;19126;47.472;7.850;2023-11-19T05:35:22;96750.94;;;7.80;23.30
32761;BME280;19126;47.472;7.850;2023-11-19T05:37:51;96742.13;;;7.81;24.62
32761;BME280;19126;47.472;7.850;2023-11-19T05:40:19;96744.25;;;7.86;23.26
32761;BME280;19126;47.472;7.850;2023-11-19T05:42:46;96742.88;;;8.00;23.85
32761;BME280;19126;47.472;7.850;2023-11-19T05:45:14;96737.88;;;8.06;23.66
32761;BME280;19126;47.472;7.850;2023-11-19T05:47:42;96736.69;;;8.01;24.57
32761;BME280;19126;47.472;7.850;2023-11-19T05:50:10;96744.06;;;8.05;24.06
32761;BME280;19126;47.472;7.850;2023-11-19T05:52:37;96752.38;;;8.01;24.70
32761;BME280;19126;47.472;7.850;2023-11-19T05:55:07;96750.59;;;8.01;24.98
32761;BME280;19126;47.472;7.850;2023-11-19T05:57:36;96743.19;;;7.97;24.96
32761;BME280;19126;47.472;7.850;2023-11-19T06:00:05;96736.63;;;7.92;24.84
32761;BME280;19126;47.472;7.850;2023-11-19T06:02:34;96735.97;;;7.90;24.44
32761;BME280;19126;47.472;7.850;2023-11-19T06:05:04;96734.00;;;7.92;24.71
32761;BME280;19126;47.472;7.850;2023-11-19T06:07:32;96736.63;;;7.92;24.60
32761;BME280;19126;47.472;7.850;2023-11-19T06:10:01;96750.38;;;7.95;24.98
32761;BME280;19126;47.472;7.850;2023-11-19T06:12:30;96754.78;;;7.94;24.44
32761;BME280;19126;47.472;7.850;2023-11-19T06:15:00;96748.59;;;7.95;24.86
32761;BME280;19126;47.472;7.850;2023-11-19T06:17:29;96746.78;;;7.96;24.93
32761;BME280;19126;47.472;7.850;2023-11-19T06:19:56;96747.31;;;7.99;24.05
32761;BME280;19126;47.472;7.850;2023-11-19T06:22:23;96750.72;;;8.00;25.49
32761;BME280;19126;47.472;7.850;2023-11-19T06:24:51;96751.41;;;8.02;25.07
32761;BME280;19126;47.472;7.850;2023-11-19T06:27:19;96746.81;;;8.04;24.42
32761;BME280;19126;47.472;7.850;2023-11-19T06:29:48;96740.13;;;8.01;25.09
32761;BME280;19126;47.472;7.850;2023-11-19T06:32:16;96738.97;;;8.04;24.85
32761;BME280;19126;47.472;7.850;2023-11-19T06:34:43;96736.06;;;8.07;24.62
32761;BME280;19126;47.472;7.850;2023-11-19T06:37:11;96741.81;;;8.11;25.14
32761;BME280;19126;47.472;7.850;2023-11-19T06:39:39;96749.19;;;8.15;24.28
32761;BME280;19126;47.472;7.850;2023-11-19T06:42:07;96737.28;;;8.21;24.74
32761;BME280;19126;47.472;7.850;2023-11-19T06:44:35;96755.28;;;8.24;24.90
32761;BME280;19126;47.472;7.850;2023-11-19T06:47:04;96756.13;;;8.33;25.49
32761;BME280;19126;47.472;7.850;2023-11-19T06:49:32;96753.50;;;8.33;25.52
32761;BME280;19126;47.472;7.850;2023-11-19T06:52:00;96764.50;;;8.36;25.12
32761;BME280;19126;47.472;7.850;2023-11-19T06:54:27;96765.97;;;8.39;25.37
32761;BME280;19126;47.472;7.850;2023-11-19T06:56:55;96771.53;;;8.36;26.07
32761;BME280;19126;47.472;7.850;2023-11-19T06:59:23;96768.88;;;8.28;26.01
32761;BME280;19126;47.472;7.850;2023-11-19T07:01:51;96772.31;;;8.28;25.86
32761;BME280;19126;47.472;7.850;2023-11-19T07:04:20;96779.88;;;8.31;26.10
32761;BME280;19126;47.472;7.850;2023-11-19T07:06:48;96765.28;;;8.29;25.10
32761;BME280;19126;47.472;7.850;2023-11-19T07:09:16;96771.84;;;8.33;25.43
32761;BME280;19126;47.472;7.850;2023-11-19T07:11:44;96767.78;;;8.39;25.74
32761;BME280;19126;47.472;7.850;2023-11-19T07:14:12;96766.81;;;8.40;25.08
32761;BME280;19126;47.472;7.850;2023-11-19T07:16:39;96764.34;;;8.38;25.82
32761;BME280;19126;47.472;7.850;2023-11-19T07:19:07;96776.63;;;8.38;25.06
32761;BME280;19126;47.472;7.850;2023-11-19T07:21:36;96777.13;;;8.41;25.86
32761;BME280;19126;47.472;7.850;2023-11-19T07:24:06;96778.31;;;8.47;25.21
32761;BME280;19126;47.472;7.850;2023-11-19T07:26:34;96780.75;;;8.48;24.89
32761;BME280;19126;47.472;7.850;2023-11-19T07:29:01;96770.81;;;8.52;25.22
32761;BME280;19126;47.472;7.850;2023-11-19T07:31:29;96781.47;;;8.59;24.88
32761;BME280;19126;47.472;7.850;2023-11-19T07:33:56;96782.66;;;8.64;25.79
32761;BME280;19126;47.472;7.850;2023-11-19T07:36:23;96779.22;;;8.72;25.86
32761;BME280;19126;47.472;7.850;2023-11-19T07:38:53;96787.28;;;8.79;25.99
32761;BME280;19126;47.472;7.850;2023-11-19T07:41:23;96778.59;;;8.78;26.33
32761;BME280;19126;47.472;7.850;2023-11-19T07:43:51;96792.56;;;8.87;24.94
32761;BME280;19126;47.472;7.850;2023-11-19T07:46:19;96793.38;;;8.96;25.48
32761;BME280;19126;47.472;7.850;2023-11-19T07:48:47;96788.03;;;9.06;26.09
32761;BME280;19126;47.472;7.850;2023-11-19T07:51:15;96784.75;;;9.04;25.75
32761;BME280;19126;47.472;7.850;2023-11-19T07:53:43;96787.03;;;8.99;26.30
32761;BME280;19126;47.472;7.850;2023-11-19T07:56:12;96782.75;;;8.98;26.10
32761;BME280;19126;47.472;7.850;2023-11-19T07:58:40;96786.03;;;9.00;26.27
32761;BME280;19126;47.472;7.850;2023-11-19T08:01:08;96785.69;;;8.94;25.78
32761;BME280;19126;47.472;7.850;2023-11-19T08:03:36;96786.34;;;8.88;27.03
32761;BME280;19126;47.472;7.850;2023-11-19T08:06:05;96791.75;;;8.95;25.83
32761;BME280;19126;47.472;7.850;2023-11-19T08:08:33;96789.97;;;8.96;26.03
32761;BME280;19126;47.472;7.850;2023-11-19T08:11:01;96789.97;;;9.04;26.52
32761;BME280;19126;47.472;7.850;2023-11-19T08:13:30;96790.31;;;9.09;26.03
32761;BME280;19126;47.472;7.850;2023-11-19T08:15:58;96788.50;;;9.09;26.30
32761;BME280;19126;47.472;7.850;2023-11-19T08:18:26;96785.41;;;9.14;25.95
32761;BME280;19126;47.472;7.850;2023-11-19T08:20:54;96783.28;;;9.26;26.69
32761;BME280;19126;47.472;7.850;2023-11-19T08:23:22;96794.94;;;9.32;26.85
32761;BME280;19126;47.472;7.850;2023-11-19T08:25:51;96788.59;;;9.43;26.32
32761;BME280;19126;47.472;7.850;2023-11-19T08:28:19;96787.41;;;9.45;26.97
32761;BME280;19126;47.472;7.850;2023-11-19T08:30:48;96788.06;;;9.47;27.32
32761;BME280;19126;47.472;7.850;2023-11-19T08:33:16;96796.78;;;9.56;27.36
32761;BME280;19126;47.472;7.850;2023-11-19T08:35:44;96795.94;;;9.64;27.22
32761;BME280;19126;47.472;7.850;2023-11-19T08:38:13;96790.56;;;9.57;26.88
32761;BME280;19126;47.472;7.850;2023-11-19T08:40:41;96794.31;;;9.55;26.61
32761;BME280;19126;47.472;7.850;2023-11-19T08:43:09;96803.50;;;9.59;27.21
32761;BME280;19126;47.472;7.850;2023-11-19T08:45:36;96805.97;;;9.60;26.82
32761;BME280;19126;47.472;7.850;2023-11-19T08:48:05;96798.91;;;9.61;27.08
32761;BME280;19126;47.472;7.850;2023-11-19T08:50:33;96805.13;;;9.60;26.80
32761;BME280;19126;47.472;7.850;2023-11-19T08:53:01;96812.00;;;9.61;27.57
32761;BME280;19126;47.472;7.850;2023-11-19T08:55:28;96809.91;;;9.64;26.96
32761;BME280;19126;47.472;7.850;2023-11-19T08:57:55;96817.13;;;9.71;27.26
32761;BME280;19126;47.472;7.850;2023-11-19T09:00:24;96811.53;;;9.74;27.44
32761;BME280;19126;47.472;7.850;2023-11-19T09:02:51;96815.47;;;9.86;27.36
32761;BME280;19126;47.472;7.850;2023-11-19T09:05:20;96809.56;;;9.92;27.11
32761;BME280;19126;47.472;7.850;2023-11-19T09:07:47;96813.97;;;10.00;27.30
32761;BME280;19126;47.472;7.850;2023-11-19T09:10:15;96809.56;;;9.92;27.27
32761;BME280;19126;47.472;7.850;2023-11-19T09:12:43;96802.81;;;9.90;26.71
32761;BME280;19126;47.472;7.850;2023-11-19T09:15:10;96804.00;;;9.87;26.72
32761;BME280;19126;47.472;7.850;2023-11-19T09:17:39;96803.00;;;9.88;27.11
32761;BME280;19126;47.472;7.850;2023-11-19T09:20:08;96811.53;;;9.90;27.72
32761;BME280;19126;47.472;7.850;2023-11-19T09:22:39;96817.59;;;9.91;26.85
32761;BME280;19126;47.472;7.850;2023-11-19T09:25:08;96813.50;;;9.96;26.80
32761;BME280;19126;47.472;7.850;2023-11-19T09:27:35;96821.50;;;10.03;26.91
32761;BME280;19126;47.472;7.850;2023-11-19T09:30:03;96823.34;;;10.03;27.00
32761;BME280;19126;47.472;7.850;2023-11-19T09:32:31;96815.94;;;10.06;26.84
32761;BME280;19126;47.472;7.850;2023-11-19T09:34:58;96819.88;;;10.10;26.97
32761;BME280;19126;47.472;7.850;2023-11-19T09:37:26;96810.00;;;10.12;26.71
32761;BME280;19126;47.472;7.850;2023-11-19T09:39:55;96813.47;;;10.13;27.73
32761;BME280;19126;47.472;7.850;2023-11-19T09:42:24;96813.28;;;10.15;27.35
32761;BME280;19126;47.472;7.850;2023-11-19T09:44:54;96807.72;;;10.18;27.34
32761;BME280;19126;47.472;7.850;2023-11-19T09:47:24;96815.44;;;10.19;27.11
32761;BME280;19126;47.472;7.850;2023-11-19T09:49:53;96811.00;;;10.20;26.75
32761;BME280;19126;47.472;7.850;2023-11-19T09:52:21;96814.44;;;10.20;27.37
32761;BME280;19126;47.472;7.850;2023-11-19T09:54:50;96820.16;;;10.24;27.56
32761;BME280;19126;47.472;7.850;2023-11-19T09:57:19;96818.84;;;10.28;27.20
32761;BME280;19126;47.472;7.850;2023-11-19T09:59:48;96825.59;;;10.31;26.82
32761;BME280;19126;47.472;7.850;2023-11-19T10:02:17;96829.53;;;10.35;27.30
32761;BME280;19126;47.472;7.850;2023-11-19T10:04:47;96834.28;;;10.39;26.93
32761;BME280;19126;47.472;7.850;2023-11-19T10:07:15;96836.56;;;10.43;26.75
32761;BME280;19126;47.472;7.850;2023-11-19T10:09:43;96834.25;;;10.48;27.12
32761;BME280;19126;47.472;7.850;2023-11-19T10:12:12;96829.50;;;10.51;26.98
32761;BME280;19126;47.472;7.850;2023-11-19T10:14:42;96832.94;;;10.52;27.53
32761;BME280;19126;47.472;7.850;2023-11-19T10:17:11;96834.44;;;10.54;27.24
32761;BME280;19126;47.472;7.850;2023-11-19T10:19:40;96832.09;;;10.60;27.21
32761;BME280;19126;47.472;7.850;2023-11-19T10:22:08;96820.59;;;10.69;27.42
32761;BME280;19126;47.472;7.850;2023-11-19T10:24:36;96812.19;;;10.82;27.37
32761;BME280;19126;47.472;7.850;2023-11-19T10:27:07;96818.19;;;10.91;27.68
32761;BME280;19126;47.472;7.850;2023-11-19T10:29:36;96822.53;;;11.15;27.10
32761;BME280;19126;47.472;7.850;2023-11-19T10:32:06;96817.22;;;11.23;27.24
32761;BME280;19126;47.472;7.850;2023-11-19T10:34:34;96816.09;;;11.18;27.29
32761;BME280;19126;47.472;7.850;2023-11-19T10:37:03;96818.22;;;11.22;27.28
32761;BME280;19126;47.472;7.850;2023-11-19T10:39:52;96821.50;;;11.24;27.42
32761;BME280;19126;47.472;7.850;2023-11-19T10:42:21;96823.06;;;11.34;26.79
32761;BME280;19126;47.472;7.850;2023-11-19T10:44:48;96815.63;;;11.37;27.39
32761;BME280;19126;47.472;7.850;2023-11-19T10:47:19;96814.59;;;11.47;27.33
32761;BME280;19126;47.472;7.850;2023-11-19T10:49:48;96807.63;;;11.54;27.13
32761;BME280;19126;47.472;7.850;2023-11-19T10:52:18;96801.56;;;11.53;26.70
32761;BME280;19126;47.472;7.850;2023-11-19T10:54:50;96797.94;;;11.54;26.42
32761;BME280;19126;47.472;7.850;2023-11-19T10:57:21;96797.47;;;11.51;26.27
32761;BME280;19126;47.472;7.850;2023-11-19T10:59:50;96802.56;;;11.52;26.20
32761;BME280;19126;47.472;7.850;2023-11-19T11:02:28;96796.75;;;11.57;26.27
32761;BME280;19126;47.472;7.850;2023-11-19T11:04:57;96800.22;;;11.57;25.51
32761;BME280;19126;47.472;7.850;2023-11-19T11:07:25;96788.59;;;11.90;25.92
32761;BME280;19126;47.472;7.850;2023-11-19T11:12:37;96773.72;;;11.82;25.00
32761;BME280;19126;47.472;7.850;2023-11-19T11:15:07;96779.78;;;11.83;24.48
32761;BME280;19126;47.472;7.850;2023-11-19T11:17:39;96767.63;;;11.82;24.23
32761;BME280;19126;47.472;7.850;2023-11-19T11:20:10;96770.59;;;11.79;24.39
32761;BME280;19126;47.472;7.850;2023-11-19T11:22:50;96771.38;;;11.87;23.48
32761;BME280;19126;47.472;7.850;2023-11-19T11:25:32;96774.00;;;11.87;23.28
32761;BME280;19126;47.472;7.850;2023-11-19T11:28:19;96776.06;;;11.92;23.06
32761;BME280;19126;47.472;7.850;2023-11-19T11:31:13;96770.47;;;11.95;22.41
32761;BME280;19126;47.472;7.850;2023-11-19T11:34:27;96773.28;;;11.94;22.38
32761;BME280;19126;47.472;7.850;2023-11-19T11:37:11;96767.38;;;11.92;21.66
32761;BME280;19126;47.472;7.850;2023-11-19T11:39:46;96774.44;;;11.91;21.61
32761;BME280;19126;47.472;7.850;2023-11-19T11:42:33;96771.47;;;11.94;21.46
32761;BME280;19126;47.472;7.850;2023-11-19T11:45:03;96768.16;;;12.15;21.75
32761;BME280;19126;47.472;7.850;2023-11-19T11:48:10;96763.34;;;12.34;22.04
32761;BME280;19126;47.472;7.850;2023-11-19T11:50:57;96771.44;;;12.33;22.71
32761;BME280;19126;47.472;7.850;2023-11-19T11:53:26;96767.09;;;12.40;25.57
32761;BME280;19126;47.472;7.850;2023-11-19T11:55:58;96759.63;;;12.43;27.12
32761;BME280;19126;47.472;7.850;2023-11-19T11:58:35;96748.72;;;12.62;29.50
32761;BME280;19126;47.472;7.850;2023-11-19T12:01:05;96746.09;;;12.62;33.77
32761;BME280;19126;47.472;7.850;2023-11-19T12:03:33;96742.78;;;12.74;36.25
32761;BME280;19126;47.472;7.850;2023-11-19T12:06:02;96741.50;;;12.70;42.45
32761;BME280;19126;47.472;7.850;2023-11-19T12:08:30;96740.50;;;12.71;45.80
32761;BME280;19126;47.472;7.850;2023-11-19T12:10:59;96743.78;;;12.73;49.17
32761;BME280;19126;47.472;7.850;2023-11-19T12:13:45;96744.63;;;12.74;52.70
32761;BME280;19126;47.472;7.850;2023-11-19T12:16:13;96739.13;;;12.75;55.25
32761;BME280;19126;47.472;7.850;2023-11-19T12:18:41;96736.13;;;12.79;56.83
32761;BME280;19126;47.472;7.850;2023-11-19T12:21:10;96729.22;;;12.93;57.72
32761;BME280;19126;47.472;7.850;2023-11-19T12:23:45;96736.88;;;13.09;59.64
32761;BME280;19126;47.472;7.850;2023-11-19T12:26:33;96733.28;;;13.17;64.19
32761;BME280;19126;47.472;7.850;2023-11-19T12:29:01;96738.31;;;13.12;68.10
32761;BME280;19126;47.472;7.850;2023-11-19T12:31:32;96732.41;;;13.10;71.22
32761;BME280;19126;47.472;7.850;2023-11-19T12:34:09;96735.69;;;13.12;73.57
32761;BME280;19126;47.472;7.850;2023-11-19T12:36:41;96737.25;;;13.28;75.78
32761;BME280;19126;47.472;7.850;2023-11-19T12:39:10;96732.44;;;13.31;79.01
32761;BME280;19126;47.472;7.850;2023-11-19T12:41:52;96730.06;;;13.37;83.96
32761;BME280;19126;47.472;7.850;2023-11-19T12:44:21;96721.56;;;13.41;89.00
32761;BME280;19126;47.472;7.850;2023-11-19T12:47:00;96728.81;;;13.54;90.99
32761;BME280;19126;47.472;7.850;2023-11-19T12:49:28;96726.66;;;13.65;93.98
32761;BME280;19126;47.472;7.850;2023-11-19T12:51:57;96728.81;;;13.54;96.75
32761;BME280;19126;47.472;7.850;2023-11-19T12:54:35;96719.91;;;13.55;98.34
32761;BME280;19126;47.472;7.850;2023-11-19T12:57:04;96717.03;;;13.57;100.00
32761;BME280;19126;47.472;7.850;2023-11-19T12:59:31;96718.13;;;13.62;100.00
32761;BME280;19126;47.472;7.850;2023-11-19T13:01:59;96733.50;;;13.59;100.00
32761;BME280;19126;47.472;7.850;2023-11-19T13:04:29;96722.03;;;13.73;100.00
32761;BME280;19126;47.472;7.850;2023-11-19T13:06:59;96725.13;;;13.77;100.00
32761;BME280;19126;47.472;7.850;2023-11-19T13:09:27;96726.13;;;13.76;100.00
32761;BME280;19126;47.472;7.850;2023-11-19T13:11:56;96725.13;;;13.77;100.00
32761;BME280;19126;47.472;7.850;2023-11-19T13:14:36;96717.00;;;13.78;100.00
32761;BME280;19126;47.472;7.850;2023-11-19T13:17:04;96714.44;;;13.85;100.00
32761;BME280;19126;47.472;7.850;2023-11-19T13:19:32;96717.84;;;13.79;100.00
32761;BME280;19126;47.472;7.850;2023-11-19T13:22:02;96725.31;;;13.75;100.00